sensor_id;sensor_type;location;lat;lon;timestamp;P1;durP1;ratioP1;P2;durP2;ratioP2
36787;SDS011;22738;45.560;9.434;2022-09-16T00:02:27;6.22;;;3.92;;
36787;SDS011;22738;45.560;9.434;2022-09-16T00:09:08;7.40;;;3.80;;
36787;SDS011;22738;45.560;9.434;2022-09-16T00:15:49;10.35;;;4.10;;
36787;SDS011;22738;45.560;9.434;2022-09-16T00:22:30;6.22;;;3.63;;
36787;SDS011;22738;45.560;9.434;2022-09-16T00:29:11;6.28;;;3.72;;
36787;SDS011;22738;45.560;9.434;2022-09-16T00:36:03;7.70;;;3.50;;
36787;SDS011;22738;45.560;9.434;2022-09-16T00:42:54;6.47;;;4.13;;
36787;SDS011;22738;45.560;9.434;2022-09-16T00:49:35;8.05;;;4.32;;
36787;SDS011;22738;45.560;9.434;2022-09-16T00:56:17;8.88;;;4.13;;
36787;SDS011;22738;45.560;9.434;2022-09-16T01:03:04;10.95;;;4.88;;
36787;SDS011;22738;45.560;9.434;2022-09-16T01:09:46;10.15;;;5.47;;
36787;SDS011;22738;45.560;9.434;2022-09-16T01:16:32;10.95;;;5.10;;
36787;SDS011;22738;45.560;9.434;2022-09-16T01:30:42;8.23;;;3.60;;
36787;SDS011;22738;45.560;9.434;2022-09-16T01:37:46;8.43;;;4.22;;
36787;SDS011;22738;45.560;9.434;2022-09-16T01:52:26;6.13;;;3.60;;
36787;SDS011;22738;45.560;9.434;2022-09-16T02:06:37;6.63;;;3.72;;
36787;SDS011;22738;45.560;9.434;2022-09-16T02:13:20;6.00;;;3.67;;
36787;SDS011;22738;45.560;9.434;2022-09-16T02:20:07;4.60;;;3.15;;
36787;SDS011;22738;45.560;9.434;2022-09-16T02:26:51;5.47;;;3.05;;
36787;SDS011;22738;45.560;9.434;2022-09-16T02:33:39;6.55;;;2.85;;
36787;SDS011;22738;45.560;9.434;2022-09-16T02:40:41;4.95;;;2.47;;
36787;SDS011;22738;45.560;9.434;2022-09-16T02:47:31;3.45;;;2.95;;
36787;SDS011;22738;45.560;9.434;2022-09-16T02:54:22;5.82;;;2.95;;
36787;SDS011;22738;45.560;9.434;2022-09-16T03:01:04;4.72;;;2.92;;
36787;SDS011;22738;45.560;9.434;2022-09-16T03:07:46;6.60;;;4.07;;
36787;SDS011;22738;45.560;9.434;2022-09-16T03:42:16;6.55;;;4.05;;
36787;SDS011;22738;45.560;9.434;2022-09-16T03:48:57;10.93;;;5.30;;
36787;SDS011;22738;45.560;9.434;2022-09-16T03:55:38;11.27;;;4.38;;
36787;SDS011;22738;45.560;9.434;2022-09-16T04:02:19;7.50;;;3.97;;
36787;SDS011;22738;45.560;9.434;2022-09-16T04:09:01;8.00;;;4.47;;
36787;SDS011;22738;45.560;9.434;2022-09-16T04:15:44;8.55;;;3.78;;
36787;SDS011;22738;45.560;9.434;2022-09-16T04:22:27;6.95;;;3.65;;
36787;SDS011;22738;45.560;9.434;2022-09-16T04:29:10;11.43;;;4.05;;
36787;SDS011;22738;45.560;9.434;2022-09-16T04:35:51;6.07;;;3.40;;
36787;SDS011;22738;45.560;9.434;2022-09-16T04:42:32;6.05;;;3.42;;
36787;SDS011;22738;45.560;9.434;2022-09-16T04:49:13;7.95;;;3.00;;
36787;SDS011;22738;45.560;9.434;2022-09-16T04:56:01;6.82;;;2.67;;
36787;SDS011;22738;45.560;9.434;2022-09-16T05:02:43;5.18;;;2.63;;
36787;SDS011;22738;45.560;9.434;2022-09-16T05:09:25;6.68;;;3.15;;
36787;SDS011;22738;45.560;9.434;2022-09-16T05:16:07;6.03;;;2.65;;
36787;SDS011;22738;45.560;9.434;2022-09-16T05:22:50;7.18;;;3.35;;
36787;SDS011;22738;45.560;9.434;2022-09-16T05:29:31;8.55;;;3.03;;
36787;SDS011;22738;45.560;9.434;2022-09-16T05:36:14;7.68;;;3.50;;
36787;SDS011;22738;45.560;9.434;2022-09-16T05:42:56;6.50;;;3.47;;
36787;SDS011;22738;45.560;9.434;2022-09-16T05:49:37;6.65;;;3.33;;
36787;SDS011;22738;45.560;9.434;2022-09-16T05:56:19;6.97;;;3.00;;
36787;SDS011;22738;45.560;9.434;2022-09-16T06:03:04;8.18;;;4.22;;
36787;SDS011;22738;45.560;9.434;2022-09-16T06:09:45;9.45;;;5.10;;
36787;SDS011;22738;45.560;9.434;2022-09-16T06:16:26;10.98;;;5.20;;
36787;SDS011;22738;45.560;9.434;2022-09-16T06:23:13;14.77;;;6.18;;
36787;SDS011;22738;45.560;9.434;2022-09-16T06:29:55;11.60;;;5.90;;
36787;SDS011;22738;45.560;9.434;2022-09-16T06:36:37;12.77;;;6.70;;
36787;SDS011;22738;45.560;9.434;2022-09-16T06:43:19;11.50;;;6.43;;
36787;SDS011;22738;45.560;9.434;2022-09-16T06:50:00;11.55;;;7.18;;
36787;SDS011;22738;45.560;9.434;2022-09-16T06:56:41;12.73;;;7.35;;
36787;SDS011;22738;45.560;9.434;2022-09-16T07:03:22;14.63;;;7.43;;
36787;SDS011;22738;45.560;9.434;2022-09-16T07:10:03;18.35;;;9.18;;
36787;SDS011;22738;45.560;9.434;2022-09-16T07:16:45;14.60;;;7.82;;
36787;SDS011;22738;45.560;9.434;2022-09-16T07:23:31;19.77;;;8.63;;
36787;SDS011;22738;45.560;9.434;2022-09-16T07:30:13;17.88;;;8.90;;
36787;SDS011;22738;45.560;9.434;2022-09-16T07:36:55;19.63;;;8.93;;
36787;SDS011;22738;45.560;9.434;2022-09-16T07:43:37;18.42;;;6.38;;
36787;SDS011;22738;45.560;9.434;2022-09-16T07:50:19;15.32;;;5.97;;
36787;SDS011;22738;45.560;9.434;2022-09-16T07:57:02;13.85;;;4.97;;
36787;SDS011;22738;45.560;9.434;2022-09-16T08:10:25;10.23;;;4.90;;
36787;SDS011;22738;45.560;9.434;2022-09-16T08:17:06;13.57;;;5.85;;
36787;SDS011;22738;45.560;9.434;2022-09-16T08:23:47;9.10;;;4.05;;
36787;SDS011;22738;45.560;9.434;2022-09-16T08:30:29;16.50;;;5.90;;
36787;SDS011;22738;45.560;9.434;2022-09-16T08:37:10;17.37;;;6.03;;
36787;SDS011;22738;45.560;9.434;2022-09-16T08:44:01;17.60;;;7.20;;
36787;SDS011;22738;45.560;9.434;2022-09-16T08:50:51;17.45;;;7.13;;
36787;SDS011;22738;45.560;9.434;2022-09-16T08:57:33;17.08;;;7.65;;
36787;SDS011;22738;45.560;9.434;2022-09-16T09:04:20;19.20;;;6.70;;
36787;SDS011;22738;45.560;9.434;2022-09-16T09:25:20;13.10;;;6.07;;
36787;SDS011;22738;45.560;9.434;2022-09-16T09:39:11;12.88;;;6.50;;
36787;SDS011;22738;45.560;9.434;2022-09-16T09:46:20;10.13;;;5.13;;
36787;SDS011;22738;45.560;9.434;2022-09-16T09:53:19;10.73;;;4.60;;
36787;SDS011;22738;45.560;9.434;2022-09-16T10:00:16;18.92;;;4.43;;
36787;SDS011;22738;45.560;9.434;2022-09-16T10:06:58;7.32;;;4.55;;
36787;SDS011;22738;45.560;9.434;2022-09-16T10:13:46;15.02;;;7.28;;
36787;SDS011;22738;45.560;9.434;2022-09-16T10:20:36;13.75;;;5.80;;
36787;SDS011;22738;45.560;9.434;2022-09-16T10:27:19;10.48;;;4.20;;
36787;SDS011;22738;45.560;9.434;2022-09-16T10:34:01;10.73;;;4.13;;
36787;SDS011;22738;45.560;9.434;2022-09-16T10:40:54;7.93;;;4.18;;
36787;SDS011;22738;45.560;9.434;2022-09-16T10:47:44;10.70;;;4.53;;
36787;SDS011;22738;45.560;9.434;2022-09-16T10:54:30;6.85;;;3.63;;
36787;SDS011;22738;45.560;9.434;2022-09-16T11:08:03;13.88;;;5.22;;
36787;SDS011;22738;45.560;9.434;2022-09-16T11:29:00;12.40;;;4.03;;
36787;SDS011;22738;45.560;9.434;2022-09-16T11:50:06;6.60;;;2.58;;
36787;SDS011;22738;45.560;9.434;2022-09-16T11:56:52;7.95;;;3.17;;
36787;SDS011;22738;45.560;9.434;2022-09-16T12:03:45;6.43;;;2.65;;
36787;SDS011;22738;45.560;9.434;2022-09-16T12:17:30;10.40;;;4.43;;
36787;SDS011;22738;45.560;9.434;2022-09-16T12:24:23;7.35;;;2.78;;
36787;SDS011;22738;45.560;9.434;2022-09-16T12:31:11;5.38;;;2.65;;
36787;SDS011;22738;45.560;9.434;2022-09-16T12:37:57;8.00;;;3.28;;
36787;SDS011;22738;45.560;9.434;2022-09-16T12:52:15;5.97;;;2.90;;
36787;SDS011;22738;45.560;9.434;2022-09-16T13:06:18;6.45;;;2.13;;
36787;SDS011;22738;45.560;9.434;2022-09-16T13:13:01;3.78;;;2.03;;
36787;SDS011;22738;45.560;9.434;2022-09-16T13:19:50;4.07;;;1.70;;
36787;SDS011;22738;45.560;9.434;2022-09-16T13:26:41;3.53;;;1.50;;
36787;SDS011;22738;45.560;9.434;2022-09-16T13:33:24;4.57;;;1.70;;
36787;SDS011;22738;45.560;9.434;2022-09-16T13:40:14;5.45;;;2.17;;
36787;SDS011;22738;45.560;9.434;2022-09-16T13:53:50;4.53;;;1.95;;
36787;SDS011;22738;45.560;9.434;2022-09-16T14:00:49;4.72;;;1.70;;
36787;SDS011;22738;45.560;9.434;2022-09-16T14:07:54;3.42;;;1.63;;
36787;SDS011;22738;45.560;9.434;2022-09-16T14:14:46;1.85;;;1.10;;
36787;SDS011;22738;45.560;9.434;2022-09-16T14:21:27;3.10;;;1.83;;
36787;SDS011;22738;45.560;9.434;2022-09-16T14:28:20;3.77;;;1.87;;
36787;SDS011;22738;45.560;9.434;2022-09-16T14:35:22;4.75;;;1.65;;
36787;SDS011;22738;45.560;9.434;2022-09-16T14:42:06;3.17;;;2.00;;
36787;SDS011;22738;45.560;9.434;2022-09-16T14:48:47;2.92;;;1.98;;
36787;SDS011;22738;45.560;9.434;2022-09-16T14:55:31;3.15;;;1.83;;
36787;SDS011;22738;45.560;9.434;2022-09-16T15:09:12;2.97;;;1.63;;
36787;SDS011;22738;45.560;9.434;2022-09-16T15:16:00;3.10;;;1.65;;
36787;SDS011;22738;45.560;9.434;2022-09-16T15:22:51;3.73;;;1.93;;
36787;SDS011;22738;45.560;9.434;2022-09-16T15:29:35;4.70;;;1.70;;
36787;SDS011;22738;45.560;9.434;2022-09-16T15:36:32;5.13;;;1.88;;
36787;SDS011;22738;45.560;9.434;2022-09-16T15:43:17;3.97;;;1.88;;
36787;SDS011;22738;45.560;9.434;2022-09-16T15:50:09;4.00;;;2.33;;
36787;SDS011;22738;45.560;9.434;2022-09-16T15:57:03;6.53;;;2.25;;
36787;SDS011;22738;45.560;9.434;2022-09-16T16:03:57;3.80;;;2.35;;
36787;SDS011;22738;45.560;9.434;2022-09-16T16:10:40;3.90;;;2.25;;
36787;SDS011;22738;45.560;9.434;2022-09-16T16:24:05;3.70;;;2.42;;
36787;SDS011;22738;45.560;9.434;2022-09-16T16:30:46;3.85;;;2.05;;
36787;SDS011;22738;45.560;9.434;2022-09-16T16:37:28;3.55;;;2.20;;
36787;SDS011;22738;45.560;9.434;2022-09-16T16:44:11;3.75;;;1.80;;
36787;SDS011;22738;45.560;9.434;2022-09-16T16:50:56;3.85;;;2.10;;
36787;SDS011;22738;45.560;9.434;2022-09-16T16:57:43;3.33;;;1.88;;
36787;SDS011;22738;45.560;9.434;2022-09-16T17:04:24;4.90;;;1.80;;
36787;SDS011;22738;45.560;9.434;2022-09-16T17:11:06;2.95;;;1.95;;
36787;SDS011;22738;45.560;9.434;2022-09-16T17:17:49;2.60;;;1.83;;
36787;SDS011;22738;45.560;9.434;2022-09-16T17:24:30;3.30;;;1.55;;
36787;SDS011;22738;45.560;9.434;2022-09-16T17:31:13;3.05;;;2.00;;
36787;SDS011;22738;45.560;9.434;2022-09-16T17:37:56;2.90;;;1.80;;
36787;SDS011;22738;45.560;9.434;2022-09-16T17:44:37;5.35;;;2.55;;
36787;SDS011;22738;45.560;9.434;2022-09-16T17:51:18;2.65;;;2.05;;
36787;SDS011;22738;45.560;9.434;2022-09-16T17:57:59;3.45;;;2.17;;
36787;SDS011;22738;45.560;9.434;2022-09-16T18:04:40;3.08;;;2.28;;
36787;SDS011;22738;45.560;9.434;2022-09-16T18:11:24;5.28;;;2.30;;
36787;SDS011;22738;45.560;9.434;2022-09-16T18:18:07;5.07;;;2.85;;
36787;SDS011;22738;45.560;9.434;2022-09-16T18:24:48;7.07;;;2.90;;
36787;SDS011;22738;45.560;9.434;2022-09-16T18:31:30;4.03;;;2.53;;
36787;SDS011;22738;45.560;9.434;2022-09-16T18:38:12;5.25;;;2.47;;
36787;SDS011;22738;45.560;9.434;2022-09-16T18:44:53;5.80;;;2.97;;
36787;SDS011;22738;45.560;9.434;2022-09-16T18:51:35;5.30;;;2.80;;
36787;SDS011;22738;45.560;9.434;2022-09-16T18:58:18;3.65;;;2.28;;
36787;SDS011;22738;45.560;9.434;2022-09-16T19:04:59;5.68;;;2.97;;
36787;SDS011;22738;45.560;9.434;2022-09-16T19:11:41;5.05;;;2.50;;
36787;SDS011;22738;45.560;9.434;2022-09-16T19:18:23;10.57;;;2.72;;
36787;SDS011;22738;45.560;9.434;2022-09-16T19:25:05;5.65;;;2.75;;
36787;SDS011;22738;45.560;9.434;2022-09-16T19:31:47;4.63;;;2.30;;
36787;SDS011;22738;45.560;9.434;2022-09-16T19:38:33;4.82;;;2.75;;
36787;SDS011;22738;45.560;9.434;2022-09-16T19:45:14;5.75;;;3.08;;
36787;SDS011;22738;45.560;9.434;2022-09-16T19:51:56;4.72;;;2.47;;
36787;SDS011;22738;45.560;9.434;2022-09-16T19:58:37;4.85;;;2.47;;
36787;SDS011;22738;45.560;9.434;2022-09-16T20:05:20;4.03;;;2.13;;
36787;SDS011;22738;45.560;9.434;2022-09-16T20:12:01;8.57;;;2.30;;
36787;SDS011;22738;45.560;9.434;2022-09-16T20:18:43;3.53;;;1.58;;
36787;SDS011;22738;45.560;9.434;2022-09-16T20:25:24;4.40;;;1.90;;
36787;SDS011;22738;45.560;9.434;2022-09-16T20:32:05;3.10;;;1.63;;
36787;SDS011;22738;45.560;9.434;2022-09-16T20:38:46;2.65;;;1.70;;
36787;SDS011;22738;45.560;9.434;2022-09-16T20:45:27;4.53;;;2.30;;
36787;SDS011;22738;45.560;9.434;2022-09-16T20:52:08;5.03;;;2.20;;
36787;SDS011;22738;45.560;9.434;2022-09-16T20:58:49;5.32;;;2.55;;
36787;SDS011;22738;45.560;9.434;2022-09-16T21:05:31;4.65;;;2.35;;
36787;SDS011;22738;45.560;9.434;2022-09-16T21:12:12;4.50;;;2.15;;
36787;SDS011;22738;45.560;9.434;2022-09-16T21:18:55;6.83;;;2.70;;
36787;SDS011;22738;45.560;9.434;2022-09-16T21:25:37;3.92;;;2.25;;
36787;SDS011;22738;45.560;9.434;2022-09-16T21:32:18;15.40;;;3.83;;
36787;SDS011;22738;45.560;9.434;2022-09-16T21:39:00;9.32;;;3.17;;
36787;SDS011;22738;45.560;9.434;2022-09-16T21:45:41;20.85;;;4.18;;
36787;SDS011;22738;45.560;9.434;2022-09-16T21:52:23;9.82;;;3.13;;
36787;SDS011;22738;45.560;9.434;2022-09-16T21:59:05;8.30;;;2.67;;
36787;SDS011;22738;45.560;9.434;2022-09-16T22:05:47;9.80;;;3.10;;
36787;SDS011;22738;45.560;9.434;2022-09-16T22:12:28;11.52;;;3.17;;
36787;SDS011;22738;45.560;9.434;2022-09-16T22:19:10;18.48;;;4.30;;
36787;SDS011;22738;45.560;9.434;2022-09-16T22:25:56;5.20;;;2.70;;
36787;SDS011;22738;45.560;9.434;2022-09-16T22:32:37;6.10;;;2.75;;
36787;SDS011;22738;45.560;9.434;2022-09-16T22:39:18;4.95;;;2.13;;
36787;SDS011;22738;45.560;9.434;2022-09-16T22:46:06;9.27;;;2.70;;
36787;SDS011;22738;45.560;9.434;2022-09-16T22:52:49;5.22;;;2.28;;
36787;SDS011;22738;45.560;9.434;2022-09-16T22:59:30;8.23;;;2.70;;
36787;SDS011;22738;45.560;9.434;2022-09-16T23:06:12;5.65;;;2.33;;
36787;SDS011;22738;45.560;9.434;2022-09-16T23:12:54;4.40;;;2.17;;
36787;SDS011;22738;45.560;9.434;2022-09-16T23:19:39;4.85;;;2.78;;
36787;SDS011;22738;45.560;9.434;2022-09-16T23:26:21;3.92;;;2.03;;
36787;SDS011;22738;45.560;9.434;2022-09-16T23:39:44;35.65;;;5.05;;
36787;SDS011;22738;45.560;9.434;2022-09-16T23:46:26;8.02;;;3.08;;
36787;SDS011;22738;45.560;9.434;2022-09-16T23:53:11;9.52;;;5.50;;
36787;SDS011;22738;45.560;9.434;2022-09-16T23:59:52;18.95;;;8.77;;
